Time;durP1;ratioP1;P1;durP2;ratioP2;P2;SDS_P1;SDS_P2;PMS_P1;PMS_P2;Temp;Humidity;BMP_temperature;BMP_pressure;BME280_temperature;BME280_humidity;BME280_pressure;Samples;Min_cycle;Max_cycle;Signal;HPM_P1;HPM_P2
2022/11/23 00:00:24;;;;;;;20.80;14.63;;;7.80;99.90;;;;;;5116975;28;20044;-79
2022/11/23 00:02:54;;;;;;;20.30;13.80;;;7.80;99.90;;;;;;5115748;28;20305;-79
2022/11/23 00:05:20;;;;;;;19.53;13.07;;;7.80;99.90;;;;;;5117019;28;20273;-79
2022/11/23 00:07:46;;;;;;;23.93;13.83;;;7.80;99.90;;;;;;5115650;28;20289;-79
2022/11/23 00:10:12;;;;;;;19.10;12.87;;;7.80;99.90;;;;;;5116627;28;20109;-79
2022/11/23 00:12:38;;;;;;;19.37;14.10;;;7.80;99.90;;;;;;5116874;27;20079;-79
2022/11/23 00:15:05;;;;;;;20.93;14.03;;;7.80;99.90;;;;;;5116559;28;20273;-79
2022/11/23 00:17:31;;;;;;;24.90;14.37;;;7.80;99.90;;;;;;5115774;28;20070;-79
2022/11/23 00:19:56;;;;;;;19.80;12.60;;;7.80;99.90;;;;;;5116604;28;20772;-81
2022/11/23 00:22:22;;;;;;;20.20;14.00;;;7.90;99.90;;;;;;5116601;28;20340;-79
2022/11/23 00:24:48;;;;;;;19.33;13.47;;;7.90;99.90;;;;;;5115794;28;20044;-79
2022/11/23 00:27:14;;;;;;;24.30;14.17;;;7.90;99.90;;;;;;5115241;28;20388;-79
2022/11/23 00:29:40;;;;;;;17.23;12.87;;;7.90;99.90;;;;;;5097913;28;20093;-79
2022/11/23 00:32:05;;;;;;;20.20;13.03;;;7.90;99.90;;;;;;5115968;28;20068;-80
2022/11/23 00:34:31;;;;;;;18.83;13.07;;;7.90;99.90;;;;;;5116429;28;20058;-79
2022/11/23 00:36:57;;;;;;;18.90;13.40;;;7.90;99.90;;;;;;5116339;28;20054;-79
2022/11/23 00:39:22;;;;;;;19.63;12.80;;;7.90;99.90;;;;;;5116007;28;20131;-79
2022/11/23 00:41:48;;;;;;;21.53;13.80;;;7.90;99.90;;;;;;5116215;28;20471;-80
2022/11/23 00:44:14;;;;;;;18.70;13.20;;;7.90;99.90;;;;;;5115090;28;20039;-80
2022/11/23 00:46:39;;;;;;;19.30;12.33;;;7.90;99.90;;;;;;5116221;28;20479;-79
2022/11/23 00:49:05;;;;;;;20.00;13.10;;;8.00;99.90;;;;;;5116036;28;20064;-79
2022/11/23 00:51:34;;;;;;;23.03;14.60;;;7.90;99.90;;;;;;5116300;28;20043;-79
2022/11/23 00:54:01;;;;;;;24.47;14.07;;;8.00;99.90;;;;;;5116206;28;20112;-79
2022/11/23 00:56:28;;;;;;;20.43;13.77;;;8.00;99.90;;;;;;5114980;28;20757;-79
2022/11/23 00:58:56;;;;;;;22.37;14.30;;;8.00;99.90;;;;;;5097981;28;20285;-79
2022/11/23 01:01:24;;;;;;;20.43;14.03;;;7.90;99.90;;;;;;5114640;28;20568;-79
2022/11/23 01:03:52;;;;;;;22.67;13.23;;;8.00;99.90;;;;;;5114671;28;20364;-79
2022/11/23 01:06:24;;;;;;;20.23;12.93;;;8.00;99.90;;;;;;5115380;28;20277;-79
2022/11/23 01:08:52;;;;;;;24.03;14.27;;;8.00;99.90;;;;;;5115808;28;20335;-79
2022/11/23 01:11:23;;;;;;;21.73;14.43;;;8.00;99.90;;;;;;5115361;28;20282;-79
2022/11/23 01:13:49;;;;;;;22.03;14.10;;;8.00;99.90;;;;;;5115629;28;20783;-79
2022/11/23 01:16:19;;;;;;;20.37;14.53;;;8.00;99.90;;;;;;5114350;28;20758;-79
2022/11/23 01:18:45;;;;;;;20.77;13.93;;;8.00;99.90;;;;;;5115632;28;20288;-79
2022/11/23 01:21:10;;;;;;;22.67;14.40;;;8.00;99.90;;;;;;5114292;28;20285;-80
2022/11/23 01:23:36;;;;;;;22.63;14.17;;;8.00;99.90;;;;;;5114823;28;20517;-79
2022/11/23 01:26:09;;;;;;;20.17;14.60;;;8.00;99.90;;;;;;5115455;28;20047;-78
2022/11/23 01:28:36;;;;;;;21.27;13.70;;;8.00;99.90;;;;;;5115689;28;20047;-79
2022/11/23 01:31:10;;;;;;;20.33;14.87;;;8.00;99.90;;;;;;5114846;28;20297;-79
2022/11/23 01:33:36;;;;;;;22.70;13.75;;;8.00;99.90;;;;;;5115580;28;20332;-79
2022/11/23 01:36:16;;;;;;;23.43;14.53;;;8.00;99.90;;;;;;5115399;28;20051;-79
2022/11/23 01:38:42;;;;;;;21.00;14.13;;;8.00;99.90;;;;;;5115192;28;20270;-79
2022/11/23 01:41:14;;;;;;;21.50;15.23;;;8.00;99.90;;;;;;5113987;28;20281;-79
2022/11/23 01:43:40;;;;;;;25.27;15.27;;;8.00;99.90;;;;;;5114260;28;20286;-79
2022/11/23 01:46:06;;;;;;;25.17;14.70;;;8.00;99.90;;;;;;5115103;28;20672;-79
2022/11/23 01:48:40;;;;;;;23.70;15.13;;;8.00;99.90;;;;;;5114739;28;20130;-79
2022/11/23 01:51:10;;;;;;;23.53;14.70;;;8.00;99.90;;;;;;5115075;28;20215;-79
2022/11/23 01:53:37;;;;;;;20.43;15.33;;;8.00;99.90;;;;;;5114891;28;20270;-79
2022/11/23 01:56:06;;;;;;;25.37;15.17;;;8.00;99.90;;;;;;5114923;28;20369;-79
2022/11/23 01:58:35;;;;;;;24.87;15.23;;;8.10;99.90;;;;;;5113543;28;20281;-79
2022/11/23 02:01:01;;;;;;;24.63;15.40;;;8.00;99.90;;;;;;5114732;28;20281;-79
2022/11/23 02:03:29;;;;;;;24.03;16.83;;;8.00;99.90;;;;;;5114317;28;20309;-79
2022/11/23 02:06:00;;;;;;;26.43;16.07;;;8.10;99.90;;;;;;5114793;28;20056;-79
2022/11/23 02:08:27;;;;;;;27.43;16.37;;;8.10;99.90;;;;;;5114386;28;20280;-79
2022/11/23 02:10:57;;;;;;;27.20;16.00;;;8.10;99.90;;;;;;5113656;28;20666;-79
2022/11/23 02:13:24;;;;;;;29.97;16.97;;;8.10;99.90;;;;;;5114277;28;20342;-79
2022/11/23 02:15:51;;;;;;;25.97;16.77;;;8.10;99.90;;;;;;5114526;27;20364;-79
2022/11/23 02:18:21;;;;;;;26.87;16.57;;;8.00;99.90;;;;;;5112572;28;20836;-79
2022/11/23 02:20:48;;;;;;;23.27;16.67;;;8.10;99.90;;;;;;5114611;28;20312;-79
2022/11/23 02:23:45;;;;;;;26.70;17.17;;;8.10;99.90;;;;;;5095877;28;20785;-80
2022/11/23 02:26:16;;;;;;;25.37;16.80;;;8.10;99.90;;;;;;5114488;28;20277;-79
2022/11/23 02:28:46;;;;;;;26.33;17.07;;;8.10;99.90;;;;;;5114300;28;20322;-79
2022/11/23 02:31:11;;;;;;;29.50;17.77;;;8.20;99.90;;;;;;5112738;28;20754;-79
2022/11/23 02:33:38;;;;;;;28.17;17.23;;;8.20;99.90;;;;;;5113861;28;20284;-79
2022/11/23 02:36:33;;;;;;;28.23;18.00;;;8.10;99.90;;;;;;5113120;28;20541;-79
2022/11/23 02:39:03;;;;;;;28.10;19.03;;;8.20;99.90;;;;;;5113516;28;20282;-77
2022/11/23 02:41:42;;;;;;;36.87;19.93;;;8.10;99.90;;;;;;5112659;28;20290;-77
2022/11/23 02:44:20;;;;;;;33.33;20.37;;;8.20;99.90;;;;;;5114129;28;20715;-77
2022/11/23 02:46:45;;;;;;;32.10;20.27;;;8.20;99.90;;;;;;5113082;28;20281;-77
2022/11/23 02:49:11;;;;;;;34.20;20.57;;;8.10;99.90;;;;;;5112785;28;20326;-77
2022/11/23 02:51:37;;;;;;;36.83;21.70;;;8.10;99.90;;;;;;5112563;28;20035;-77
2022/11/23 02:54:03;;;;;;;35.90;20.37;;;8.10;99.90;;;;;;5112931;28;20126;-77
2022/11/23 02:56:28;;;;;;;39.33;21.43;;;8.10;99.90;;;;;;5112421;28;20054;-77
2022/11/23 02:58:54;;;;;;;39.87;21.13;;;8.10;99.90;;;;;;5112639;28;20839;-77
2022/11/23 03:01:20;;;;;;;39.57;21.27;;;8.10;99.90;;;;;;5113096;28;20043;-77
2022/11/23 03:03:45;;;;;;;36.57;22.53;;;8.10;99.90;;;;;;5113944;28;20047;-77
2022/11/23 03:06:11;;;;;;;35.90;22.83;;;8.10;99.90;;;;;;5112486;28;20392;-77
2022/11/23 03:08:37;;;;;;;35.13;23.10;;;8.10;99.90;;;;;;5113360;28;20043;-77
2022/11/23 03:11:02;;;;;;;43.77;24.23;;;8.10;99.90;;;;;;5112675;28;20047;-77
2022/11/23 03:13:28;;;;;;;48.67;25.33;;;8.10;99.90;;;;;;5113041;28;20066;-78
2022/11/23 03:15:58;;;;;;;43.60;25.80;;;8.10;99.90;;;;;;5113606;28;20086;-78
2022/11/23 03:18:24;;;;;;;49.83;23.80;;;8.10;99.90;;;;;;5113264;28;20047;-78
2022/11/23 03:20:50;;;;;;;45.90;25.63;;;8.00;99.90;;;;;;5112527;28;20277;-78
2022/11/23 03:23:16;;;;;;;49.27;26.53;;;8.10;99.90;;;;;;5113443;28;20780;-78
2022/11/23 03:25:41;;;;;;;47.80;23.53;;;8.00;99.90;;;;;;5113169;28;20051;-78
2022/11/23 03:28:07;;;;;;;49.93;25.73;;;8.00;99.90;;;;;;5113489;28;20091;-78
2022/11/23 03:30:33;;;;;;;45.57;25.70;;;8.00;99.90;;;;;;5116270;28;20058;-79
2022/11/23 03:32:59;;;;;;;51.93;27.17;;;8.00;99.90;;;;;;5117706;27;20047;-78
2022/11/23 03:35:24;;;;;;;48.97;26.43;;;8.00;99.90;;;;;;5117579;28;20130;-79
2022/11/23 03:37:50;;;;;;;53.20;28.33;;;8.00;99.90;;;;;;5117597;28;20040;-79
2022/11/23 03:40:15;;;;;;;50.33;27.00;;;8.00;99.90;;;;;;5099802;28;20447;-79
2022/11/23 03:42:41;;;;;;;50.87;26.17;;;8.00;99.90;;;;;;5099052;28;20048;-79
2022/11/23 03:45:08;;;;;;;48.50;25.50;;;;;;;;;;5116514;28;20116;-79
2022/11/23 03:47:35;;;;;;;53.57;27.50;;;;;;;;;;5117155;28;20044;-79
2022/11/23 03:50:01;;;;;;;49.73;26.93;;;;;;;;;;5116222;28;20691;-79
2022/11/23 03:52:27;;;;;;;49.23;27.13;;;7.90;99.90;;;;;;5116102;28;20285;-80
2022/11/23 03:54:53;;;;;;;55.47;28.60;;;;;;;;;;5117251;28;20760;-79
2022/11/23 03:57:19;;;;;;;56.00;27.77;;;;;;;;;;5133308;27;20447;-78
2022/11/23 03:59:45;;;;;;;58.30;29.43;;;;;;;;;;5116786;28;20273;-78
2022/11/23 04:02:11;;;;;;;52.90;27.27;;;;;;;;;;5115953;28;20347;-79
2022/11/23 04:04:38;;;;;;;51.50;28.23;;;;;;;;;;5116684;28;20277;-79
2022/11/23 04:07:04;;;;;;;56.60;28.50;;;;;;;;;;5115718;28;20273;-79
2022/11/23 04:09:30;;;;;;;51.63;28.70;;;;;;;;;;5116435;28;20800;-79
2022/11/23 04:11:56;;;;;;;61.13;30.33;;;;;;;;;;5116799;28;20741;-78
2022/11/23 04:14:22;;;;;;;53.13;29.17;;;;;;;;;;5115710;28;20324;-78
2022/11/23 04:16:48;;;;;;;50.77;29.03;;;;;;;;;;5116475;28;20306;-79
2022/11/23 04:19:14;;;;;;;51.03;29.87;;;;;;;;;;5115761;28;20285;-78
2022/11/23 04:21:40;;;;;;;56.77;30.97;;;;;;;;;;5116461;28;20614;-79
2022/11/23 04:24:07;;;;;;;55.63;29.50;;;;;;;;;;5115970;28;20289;-79
2022/11/23 04:26:33;;;;;;;66.37;31.50;;;;;;;;;;5115222;28;20356;-79
2022/11/23 04:28:59;;;;;;;61.80;31.70;;;;;;;;;;5116575;28;20313;-79
2022/11/23 04:31:25;;;;;;;53.83;31.57;;;;;;;;;;5116244;28;20292;-79
2022/11/23 04:33:51;;;;;;;59.63;32.93;;;;;;;;;;5132283;27;20768;-79
2022/11/23 04:36:17;;;;;;;60.63;33.57;;;;;;;;;;5115456;28;20633;-79
2022/11/23 04:38:43;;;;;;;62.07;31.27;;;;;;;;;;5116077;28;20360;-79
2022/11/23 04:41:10;;;;;;;58.43;31.77;;;;;;;;;;5115766;28;20281;-78
2022/11/23 04:43:36;;;;;;;67.80;34.87;;;;;;;;;;5115935;28;20325;-78
2022/11/23 04:46:02;;;;;;;67.27;34.93;;;;;;;;;;5115325;28;20798;-78
2022/11/23 04:48:28;;;;;;;60.50;34.87;;;;;;;;;;5116149;27;20368;-78
2022/11/23 04:50:54;;;;;;;74.67;36.67;;;;;;;;;;5115950;28;20309;-77
2022/11/23 04:53:20;;;;;;;75.73;34.63;;;;;;;;;;5116082;28;20356;-78
2022/11/23 04:55:46;;;;;;;71.90;36.23;;;;;;;;;;5114524;28;20276;-78
2022/11/23 04:58:13;;;;;;;78.50;39.00;;;;;;;;;;5116009;28;20670;-78
2022/11/23 05:00:39;;;;;;;71.47;37.00;;;;;;;;;;5114776;28;20715;-79
2022/11/23 05:03:05;;;;;;;78.67;38.80;;;;;;;;;;5114638;28;20742;-78
2022/11/23 05:05:31;;;;;;;64.87;34.17;;;;;;;;;;5114996;28;20294;-80
2022/11/23 05:07:58;;;;;;;73.73;36.03;;;;;;;;;;5115787;28;20384;-78
2022/11/23 05:10:24;;;;;;;74.10;37.20;;;;;;;;;;5115691;28;20792;-78
2022/11/23 05:12:50;;;;;;;80.27;37.47;;;;;;;;;;5115132;28;20285;-79
2022/11/23 05:15:16;;;;;;;74.70;37.90;;;;;;;;;;5115726;28;20342;-79
2022/11/23 05:17:42;;;;;;;75.83;37.07;;;;;;;;;;5115419;28;20318;-79
2022/11/23 05:20:09;;;;;;;66.17;35.60;;;;;;;;;;5115563;28;20277;-79
2022/11/23 05:22:35;;;;;;;82.53;37.17;;;;;;;;;;5115159;28;20297;-79
2022/11/23 05:25:01;;;;;;;77.63;35.67;;;;;;;;;;5114542;28;20284;-79
2022/11/23 05:27:27;;;;;;;64.80;36.43;;;8.00;99.90;;;;;;5114403;28;20810;-78
2022/11/23 05:29:53;;;;;;;70.40;35.13;;;8.00;99.90;;;;;;5113925;28;20294;-78
2022/11/23 05:32:18;;;;;;;67.33;36.07;;;8.00;99.90;;;;;;5115270;28;20044;-78
2022/11/23 05:34:44;;;;;;;59.47;34.10;;;8.00;99.90;;;;;;5115303;28;20472;-78
2022/11/23 05:37:10;;;;;;;73.57;36.07;;;8.00;99.90;;;;;;5114210;28;20040;-78
2022/11/23 05:39:35;;;;;;;72.73;36.57;;;8.00;99.90;;;;;;5115003;28;20392;-81
2022/11/23 05:42:01;;;;;;;63.50;34.23;;;8.00;99.90;;;;;;5114798;27;20046;-79
2022/11/23 05:44:27;;;;;;;71.70;35.53;;;8.00;99.90;;;;;;5115122;28;20044;-79
2022/11/23 05:46:52;;;;;;;60.53;34.13;;;8.00;99.90;;;;;;5114795;27;20491;-79
2022/11/23 05:49:18;;;;;;;68.57;35.33;;;8.00;99.90;;;;;;5114053;28;20052;-79
2022/11/23 05:51:44;;;;;;;79.43;36.53;;;8.00;99.90;;;;;;5112776;28;20051;-78
2022/11/23 05:54:09;;;;;;;64.20;32.93;;;8.00;99.90;;;;;;5115026;28;20479;-78
2022/11/23 05:56:35;;;;;;;65.37;34.00;;;8.00;99.90;;;;;;5114871;28;20095;-79
2022/11/23 05:59:01;;;;;;;64.87;34.70;;;8.00;99.90;;;;;;5114547;28;20550;-79
2022/11/23 06:01:26;;;;;;;58.23;32.97;;;8.00;99.90;;;;;;5114614;28;20092;-78
2022/11/23 06:03:52;;;;;;;70.77;34.60;;;8.00;99.90;;;;;;5113442;28;20130;-79
2022/11/23 06:06:18;;;;;;;57.67;32.07;;;8.00;99.90;;;;;;5114780;28;20055;-79
2022/11/23 06:08:43;;;;;;;65.17;32.80;;;8.00;99.90;;;;;;5113389;28;20043;-79
2022/11/23 06:11:09;;;;;;;58.33;30.63;;;8.00;99.90;;;;;;5114565;28;20047;-79
2022/11/23 06:13:35;;;;;;;52.50;32.53;;;8.00;99.90;;;;;;5114717;28;20040;-79
2022/11/23 06:16:01;;;;;;;49.80;30.90;;;8.00;99.90;;;;;;5114212;28;20047;-79
2022/11/23 06:18:26;;;;;;;45.63;28.63;;;8.00;99.90;;;;;;5114598;28;20506;-79
2022/11/23 06:20:52;;;;;;;45.13;28.63;;;8.00;99.90;;;;;;5112899;28;20289;-79
2022/11/23 06:23:18;;;;;;;45.73;27.83;;;8.00;99.90;;;;;;5113219;28;20128;-79
2022/11/23 06:25:43;;;;;;;47.77;26.77;;;7.90;99.90;;;;;;5114358;28;20050;-79
2022/11/23 06:28:09;;;;;;;55.77;27.90;;;7.90;99.90;;;;;;5113038;28;20056;-79
2022/11/23 06:30:35;;;;;;;49.80;27.83;;;7.90;99.90;;;;;;5113837;28;20056;-79
2022/11/23 06:33:04;;;;;;;40.03;24.53;;;7.90;99.90;;;;;;5112973;28;20238;-79
2022/11/23 06:35:30;;;;;;;47.17;26.73;;;7.90;99.90;;;;;;5114165;28;20092;-79
2022/11/23 06:37:55;;;;;;;41.07;24.47;;;7.90;99.90;;;;;;5112854;28;20293;-79
2022/11/23 06:40:21;;;;;;;42.87;26.33;;;7.90;99.90;;;;;;5114086;28;20043;-79
2022/11/23 06:42:47;;;;;;;45.00;24.13;;;7.90;99.90;;;;;;5112553;28;20192;-79
2022/11/23 06:45:13;;;;;;;44.20;24.17;;;7.90;99.90;;;;;;5114135;28;20044;-79
2022/11/23 06:47:39;;;;;;;41.60;23.60;;;7.90;99.90;;;;;;5094929;28;20115;-79
2022/11/23 06:50:05;;;;;;;47.67;25.13;;;7.80;99.90;;;;;;5092370;28;20424;-79
2022/11/23 06:52:30;;;;;;;39.03;23.87;;;7.80;99.90;;;;;;5093541;28;20414;-79
2022/11/23 06:54:56;;;;;;;39.47;22.53;;;7.80;99.90;;;;;;5093237;28;20099;-79
2022/11/23 06:57:22;;;;;;;40.97;23.40;;;7.80;99.90;;;;;;5093451;28;20132;-78
2022/11/23 06:59:47;;;;;;;38.77;22.83;;;7.80;99.90;;;;;;5093085;28;20365;-79
2022/11/23 07:02:14;;;;;;;38.43;23.17;;;7.80;99.90;;;;;;5093450;28;20085;-79
2022/11/23 07:04:39;;;;;;;32.97;21.37;;;7.80;99.90;;;;;;5093213;28;20500;-79
2022/11/23 07:07:08;;;;;;;32.20;20.43;;;7.80;99.90;;;;;;5093013;28;20282;-79
2022/11/23 07:09:34;;;;;;;29.80;20.47;;;7.80;99.90;;;;;;5092362;28;20040;-79
2022/11/23 07:12:00;;;;;;;34.23;20.43;;;7.80;99.90;;;;;;5091952;28;20641;-79
2022/11/23 07:14:26;;;;;;;27.30;18.40;;;7.80;99.90;;;;;;5093251;28;20060;-79
2022/11/23 07:16:51;;;;;;;33.37;17.27;;;7.80;99.90;;;;;;5091925;28;20596;-79
2022/11/23 07:19:17;;;;;;;26.57;16.77;;;7.80;99.90;;;;;;5092294;28;20388;-79
2022/11/23 07:21:44;;;;;;;26.63;16.60;;;;;;;;;;5091872;28;20040;-79
2022/11/23 07:24:10;;;;;;;27.00;16.40;;;;;;;;;;5092903;28;20087;-79
2022/11/23 07:26:36;;;;;;;26.13;15.03;;;;;;;;;;5092125;28;20326;-79
2022/11/23 07:29:02;;;;;;;25.37;15.67;;;;;;;;;;5091906;28;20361;-79
2022/11/23 07:31:29;;;;;;;27.43;15.30;;;;;;;;;;5093066;28;20297;-79
2022/11/23 07:33:55;;;;;;;28.10;15.33;;;;;;;;;;5091525;28;20286;-79
2022/11/23 07:36:21;;;;;;;25.47;14.73;;;;;;;;;;5093232;28;20282;-79
2022/11/23 07:38:47;;;;;;;26.90;15.40;;;;;;;;;;5092017;28;20854;-79
2022/11/23 07:41:13;;;;;;;23.57;14.60;;;7.80;99.90;;;;;;5091736;28;20758;-79
2022/11/23 07:43:38;;;;;;;25.33;13.77;;;7.90;99.90;;;;;;5075104;28;20351;-79
2022/11/23 07:46:04;;;;;;;27.97;14.30;;;7.90;99.90;;;;;;5091691;28;20082;-79
2022/11/23 07:48:30;;;;;;;22.07;13.40;;;7.90;99.90;;;;;;5093000;28;20067;-79
2022/11/23 07:50:55;;;;;;;20.80;13.70;;;7.80;99.90;;;;;;5091629;28;20040;-79
2022/11/23 07:53:22;;;;;;;22.50;13.77;;;7.90;99.90;;;;;;5092920;28;20051;-79
2022/11/23 07:55:48;;;;;;;24.70;14.07;;;7.90;99.90;;;;;;5091669;28;20048;-79
2022/11/23 07:58:14;;;;;;;23.53;13.50;;;7.90;99.90;;;;;;5091564;28;20361;-78
2022/11/23 08:00:39;;;;;;;27.17;13.53;;;7.90;99.90;;;;;;5091777;28;20047;-78
2022/11/23 08:03:05;;;;;;;20.83;13.23;;;7.90;99.90;;;;;;5092470;28;20048;-79
2022/11/23 08:05:32;;;;;;;25.87;13.60;;;7.90;99.90;;;;;;5092776;28;20052;-78
2022/11/23 08:08:01;;;;;;;22.97;13.57;;;7.90;99.90;;;;;;5092444;28;20048;-80
2022/11/23 08:10:28;;;;;;;21.23;12.73;;;7.90;99.90;;;;;;5092657;28;20274;-79
2022/11/23 08:13:02;;;;;;;27.17;13.93;;;7.90;99.90;;;;;;5091553;28;20649;-81
2022/11/23 08:15:28;;;;;;;26.63;13.87;;;7.90;99.90;;;;;;5093780;28;20361;-79
2022/11/23 08:17:58;;;;;;;21.17;13.00;;;7.90;99.90;;;;;;5096385;28;20372;-79
2022/11/23 08:20:25;;;;;;;20.53;13.87;;;7.90;99.90;;;;;;5095541;28;20139;-79
2022/11/23 08:22:51;;;;;;;27.17;14.37;;;8.00;99.90;;;;;;5104781;28;20291;-78
2022/11/23 08:25:17;;;;;;;24.50;13.43;;;8.00;99.90;;;;;;5102168;28;20282;-81
2022/11/23 08:27:43;;;;;;;22.47;13.57;;;8.00;99.90;;;;;;5095993;28;20761;-80
2022/11/23 08:30:09;;;;;;;24.13;13.60;;;8.00;99.90;;;;;;5094859;28;20050;-80
2022/11/23 08:32:35;;;;;;;23.27;13.57;;;8.10;99.90;;;;;;5095616;28;20113;-80
2022/11/23 08:35:00;;;;;;;20.27;11.37;;;8.10;99.90;;;;;;5095880;28;20672;-80
2022/11/23 08:37:26;;;;;;;25.00;12.90;;;8.10;99.90;;;;;;5095114;28;20476;-80
2022/11/23 08:39:52;;;;;;;23.47;12.70;;;8.10;99.90;;;;;;5096090;28;20048;-81
2022/11/23 08:42:17;;;;;;;20.93;12.47;;;8.20;99.90;;;;;;5094609;28;20044;-81
2022/11/23 08:44:43;;;;;;;19.37;11.37;;;8.20;99.90;;;;;;5096075;28;20059;-83
2022/11/23 08:47:09;;;;;;;24.10;10.83;;;8.20;99.90;;;;;;5094653;28;20082;-83
2022/11/23 08:49:34;;;;;;;22.23;11.10;;;8.20;99.90;;;;;;5095679;28;20051;-82
2022/11/23 08:52:00;;;;;;;19.67;10.50;;;8.20;99.90;;;;;;5094567;28;20052;-83
2022/11/23 08:54:26;;;;;;;19.07;10.00;;;8.30;99.90;;;;;;5077983;28;20094;-82
2022/11/23 08:56:51;;;;;;;25.40;11.33;;;8.30;99.90;;;;;;5095661;28;20090;-82
2022/11/23 08:59:18;;;;;;;23.77;9.70;;;8.30;99.90;;;;;;5095442;28;20052;-82
2022/11/23 09:01:44;;;;;;;18.60;9.73;;;8.30;99.90;;;;;;5094316;28;20048;-82
2022/11/23 09:04:10;;;;;;;21.83;9.63;;;8.30;99.90;;;;;;5095345;28;20622;-84
2022/11/23 09:06:36;;;;;;;20.57;8.83;;;8.30;99.90;;;;;;5095542;28;20278;-80
2022/11/23 09:09:02;;;;;;;18.57;8.97;;;8.40;99.90;;;;;;5095234;28;20047;-85
2022/11/23 09:11:27;;;;;;;21.83;9.57;;;8.40;99.90;;;;;;5094788;28;20040;-83
2022/11/23 09:13:53;;;;;;;18.70;7.93;;;8.40;99.90;;;;;;5095375;28;20626;-84
2022/11/23 09:16:19;;;;;;;18.83;8.33;;;8.40;99.90;;;;;;5095032;28;20040;-84
2022/11/23 09:18:48;;;;;;;17.33;8.17;;;8.50;99.90;;;;;;5094516;28;20403;-83
2022/11/23 09:21:14;;;;;;;19.37;8.93;;;8.50;99.90;;;;;;5094905;28;20758;-82
2022/11/23 09:23:39;;;;;;;22.77;9.07;;;8.50;99.90;;;;;;5093863;28;20313;-83
2022/11/23 09:26:05;;;;;;;23.37;7.23;;;8.50;99.90;;;;;;5094682;28;20043;-81
2022/11/23 09:28:31;;;;;;;19.23;7.07;;;8.50;99.90;;;;;;5095040;28;20369;-83
2022/11/23 09:30:57;;;;;;;22.43;7.43;;;8.60;99.90;;;;;;5094749;28;20126;-82
2022/11/23 09:33:24;;;;;;;19.07;7.37;;;8.50;99.90;;;;;;5094895;28;21257;-81
2022/11/23 09:36:00;;;;;;;19.60;6.87;;;8.60;99.90;;;;;;5094951;28;20079;-82
2022/11/23 09:38:26;;;;;;;19.10;7.63;;;8.60;99.90;;;;;;5093872;28;20336;-81
2022/11/23 09:41:17;;;;;;;17.37;6.77;;;8.60;99.90;;;;;;5077162;28;20347;-81
2022/11/23 09:43:56;;;;;;;20.60;7.20;;;8.60;99.90;;;;;;5073309;28;20306;-81
2022/11/23 09:47:06;;;;;;;20.07;7.47;;;8.70;99.90;;;;;;5094576;28;20365;-82
2022/11/23 09:50:06;;;;;;;17.60;6.97;;;8.60;99.90;;;;;;5070273;28;20294;-81
2022/11/23 09:52:38;;;;;;;21.50;7.90;;;8.60;99.90;;;;;;5061516;28;20295;-82
2022/11/23 09:55:15;;;;;;;19.83;6.50;;;8.60;99.90;;;;;;5094768;28;20277;-81
2022/11/23 09:57:43;;;;;;;16.37;7.10;;;8.60;99.90;;;;;;5093863;28;20630;-83
2022/11/23 10:00:21;;;;;;;18.57;6.40;;;8.60;99.90;;;;;;5092876;28;20290;-82
2022/11/23 10:02:47;;;;;;;21.97;6.27;;;8.60;99.90;;;;;;5094374;28;20335;-81
2022/11/23 10:05:22;;;;;;;19.17;6.60;;;8.60;99.90;;;;;;5103614;28;20273;-82
2022/11/23 10:08:00;;;;;;;22.70;7.10;;;8.60;99.90;;;;;;5103724;28;20079;-82
2022/11/23 10:10:53;;;;;;;18.23;6.47;;;8.60;99.90;;;;;;5101268;28;20122;-85
2022/11/23 10:13:22;;;;;;;16.50;6.50;;;8.60;99.90;;;;;;5099556;28;20282;-85
2022/11/23 10:16:27;;;;;;;20.30;6.27;;;8.60;99.90;;;;;;5103260;28;20285;-83
2022/11/23 10:19:25;;;;;;;19.88;6.75;;;8.70;99.90;;;;;;5104442;28;20302;-80
2022/11/23 10:22:18;;;;;;;21.77;6.60;;;8.70;99.90;;;;;;5104018;28;20036;-82
2022/11/23 10:24:51;;;;;;;22.33;6.10;;;8.70;99.90;;;;;;5102197;28;20318;-83
2022/11/23 10:27:21;;;;;;;18.93;5.47;;;8.70;99.90;;;;;;5100146;28;20291;-86
2022/11/23 10:29:48;;;;;;;22.13;5.30;;;8.70;99.90;;;;;;5102346;28;20629;-86
2022/11/23 10:32:33;;;;;;;17.43;5.53;;;8.80;99.90;;;;;;5102980;28;20636;-82
2022/11/23 10:35:12;;;;;;;19.65;6.60;;;8.80;99.90;;;;;;5099387;28;20762;-82
2022/11/23 10:37:39;;;;;;;19.40;5.00;;;8.80;99.90;;;;;;5098688;28;20044;-86
2022/11/23 10:40:21;;;;;;;20.27;5.37;;;8.80;99.90;;;;;;5103344;28;20281;-80
2022/11/23 10:43:14;;;;;;;20.50;5.40;;;8.90;99.90;;;;;;5101417;28;20333;-85
2022/11/23 10:45:39;;;;;;;17.27;5.07;;;9.00;99.90;;;;;;5098651;28;20301;-84
2022/11/23 10:48:05;;;;;;;23.10;5.40;;;9.00;99.90;;;;;;5096477;28;20277;-86
2022/11/23 10:50:36;;;;;;;21.20;5.33;;;9.00;99.90;;;;;;5102572;28;20480;-85
2022/11/23 10:53:04;;;;;;;23.07;5.33;;;9.00;99.90;;;;;;5100154;28;20036;-88
2022/11/23 10:55:47;;;;;;;20.00;5.17;;;9.00;99.90;;;;;;5102626;28;20288;-83
2022/11/23 10:58:28;;;;;;;20.47;4.80;;;9.00;99.90;;;;;;5102057;28;20347;-81
2022/11/23 11:01:15;;;;;;;15.10;4.60;;;9.00;99.90;;;;;;5103290;28;20339;-79
2022/11/23 11:03:41;;;;;;;19.27;4.20;;;9.00;99.90;;;;;;5088330;28;20618;-84
2022/11/23 11:06:07;;;;;;;18.03;5.03;;;9.00;99.90;;;;;;5102424;28;20293;-83
2022/11/23 11:08:36;;;;;;;18.03;4.27;;;9.10;99.90;;;;;;5100729;28;20361;-84
2022/11/23 11:11:20;;;;;;;19.10;4.87;;;9.10;99.90;;;;;;5103466;28;20812;-82
2022/11/23 11:13:47;;;;;;;18.27;4.40;;;9.10;99.90;;;;;;5101720;28;20266;-82
2022/11/23 11:16:19;;;;;;;18.53;4.83;;;9.10;99.90;;;;;;5084047;28;20278;-83
2022/11/23 11:18:45;;;;;;;13.97;4.30;;;9.10;99.90;;;;;;5101772;28;20357;-86
2022/11/23 11:21:46;;;;;;;18.83;4.60;;;9.10;99.90;;;;;;5108501;28;20665;-82
2022/11/23 11:24:20;;;;;;;15.67;3.90;;;9.10;99.90;;;;;;5074068;28;20058;-80
2022/11/23 11:26:57;;;;;;;17.97;5.30;;;9.10;99.90;;;;;;5106020;28;20368;-79
2022/11/23 11:29:42;;;;;;;20.47;4.20;;;9.20;99.90;;;;;;5112435;28;20683;-81
2022/11/23 11:32:20;;;;;;;18.50;3.63;;;9.10;99.90;;;;;;5091034;28;20298;-85
2022/11/23 11:35:00;;;;;;;15.00;4.07;;;9.10;99.90;;;;;;5113523;28;20285;-85
2022/11/23 11:37:51;;;;;;;19.00;3.97;;;9.10;99.90;;;;;;5095320;28;20384;-82
2022/11/23 11:40:33;;;;;;;14.43;3.87;;;9.10;99.90;;;;;;5113451;28;20281;-82
2022/11/23 11:43:02;;;;;;;20.77;4.07;;;9.10;99.90;;;;;;5113426;28;20297;-81
2022/11/23 11:45:33;;;;;;;16.70;3.53;;;9.10;99.90;;;;;;5111930;28;20301;-82
2022/11/23 11:48:27;;;;;;;15.10;3.53;;;9.00;99.90;;;;;;5113438;28;20602;-82
2022/11/23 11:50:58;;;;;;;19.43;3.80;;;9.00;99.90;;;;;;5122302;27;20342;-79
2022/11/23 11:53:52;;;;;;;18.77;3.80;;;9.00;99.90;;;;;;5116866;28;20675;-82
2022/11/23 11:56:27;;;;;;;25.20;3.70;;;9.10;99.90;;;;;;5117315;28;20289;-82
2022/11/23 11:59:12;;;;;;;22.48;4.22;;;9.10;99.90;;;;;;5117571;28;20285;-82
2022/11/23 12:01:50;;;;;;;15.98;3.42;;;9.10;99.90;;;;;;5099051;28;20134;-85
2022/11/23 12:04:30;;;;;;;19.90;3.60;;;9.10;99.90;;;;;;5116256;28;20146;-79
2022/11/23 12:07:15;;;;;;;16.80;2.90;;;9.10;99.90;;;;;;5117109;28;20321;-79
2022/11/23 12:09:45;;;;;;;15.67;3.30;;;9.10;99.90;;;;;;5115819;28;20321;-78
2022/11/23 12:12:17;;;;;;;17.13;3.27;;;9.10;99.90;;;;;;5115764;28;20346;-79
2022/11/23 12:14:44;;;;;;;17.13;3.20;;;9.10;99.90;;;;;;5116641;28;20289;-78
2022/11/23 12:17:31;;;;;;;14.43;2.90;;;9.10;99.90;;;;;;5117116;28;20309;-78
2022/11/23 12:20:16;;;;;;;21.73;3.80;;;9.20;99.90;;;;;;5116170;28;20702;-79
2022/11/23 12:23:05;;;;;;;20.10;4.50;;;9.20;99.90;;;;;;5116659;28;20297;-79
2022/11/23 12:25:37;;;;;;;24.87;3.63;;;9.20;99.90;;;;;;5116517;28;20285;-79
2022/11/23 12:28:08;;;;;;;12.57;3.37;;;9.20;99.90;;;;;;5115612;28;20285;-78
2022/11/23 12:31:02;;;;;;;15.57;3.43;;;9.20;99.90;;;;;;5116396;28;20607;-78
2022/11/23 12:33:37;;;;;;;18.97;4.23;;;9.30;99.90;;;;;;5115901;27;20335;-78
2022/11/23 12:36:33;;;;;;;18.38;3.42;;;9.30;99.90;;;;;;5115683;28;20289;-80
2022/11/23 12:39:33;;;;;;;14.87;3.13;;;9.30;99.90;;;;;;5115816;28;20056;-78
2022/11/23 12:42:32;;;;;;;13.57;2.80;;;9.40;99.90;;;;;;5116406;28;20301;-80
2022/11/23 12:45:19;;;;;;;23.33;3.33;;;9.40;99.90;;;;;;5116275;28;20365;-79
2022/11/23 12:47:57;;;;;;;12.47;3.23;;;9.40;99.90;;;;;;5116032;28;20285;-80
2022/11/23 12:50:42;;;;;;;15.23;3.10;;;9.40;99.90;;;;;;5116423;28;20358;-80
2022/11/23 12:53:23;;;;;;;13.10;2.90;;;9.30;99.90;;;;;;5116434;28;20277;-80
2022/11/23 12:56:10;;;;;;;10.97;2.80;;;9.30;99.90;;;;;;5115930;28;20086;-81
2022/11/23 12:58:38;;;;;;;17.27;3.30;;;9.30;99.90;;;;;;5114864;28;20296;-81
2022/11/23 13:01:15;;;;;;;12.40;2.80;;;9.30;99.90;;;;;;5115590;28;20285;-77
2022/11/23 13:04:02;;;;;;;16.93;3.00;;;9.30;99.90;;;;;;5115385;28;20818;-77
2022/11/23 13:06:47;;;;;;;18.80;3.40;;;9.30;99.90;;;;;;5115556;28;20796;-80